Time;durP1;ratioP1;P1;durP2;ratioP2;P2;SDS_P1;SDS_P2;PMS_P1;PMS_P2;Temp;Humidity;BMP_temperature;BMP_pressure;BME280_temperature;BME280_humidity;BME280_pressure;Samples;Min_cycle;Max_cycle;Signal;HPM_P1;HPM_P2
2022/07/28 00:02:16;;;;;;;17.73;7.80;;;;;;;;;;1639325;87;21609;-79
2022/07/28 00:04:42;;;;;;;19.37;8.33;;;;;;;;;;1631413;87;20857;-79
2022/07/28 00:07:08;;;;;;;18.98;8.13;;;;;;;;;;1639275;87;21718;-79
2022/07/28 00:09:33;;;;;;;17.92;8.10;;;;;;;;;;1639007;86;20909;-79
2022/07/28 00:11:59;;;;;;;15.95;7.95;;;;;;;;;;1639072;87;21618;-79
2022/07/28 00:14:25;;;;;;;14.47;7.80;;;;;;;;;;1639132;87;20929;-80
2022/07/28 00:16:50;;;;;;;14.38;7.90;;;;;;;;;;1639230;87;21682;-79
2022/07/28 00:19:17;;;;;;;11.90;7.40;;;;;;;;;;1638861;86;21109;-80
2022/07/28 00:21:43;;;;;;;13.50;7.83;;;;;;;;;;1639091;87;21051;-80
2022/07/28 00:24:08;;;;;;;15.10;8.55;;;;;;;;;;1639237;86;20913;-80
2022/07/28 00:26:34;;;;;;;18.32;7.53;;;;;;;;;;1639087;87;20929;-79
2022/07/28 00:29:00;;;;;;;13.78;7.65;;;;;;;;;;1639205;87;21431;-80
2022/07/28 00:31:26;;;;;;;14.90;7.60;;;;;;;;;;1631308;87;21158;-80
2022/07/28 00:33:51;;;;;;;18.45;8.23;;;;;;;;;;1639194;87;20928;-80
2022/07/28 00:36:17;;;;;;;14.98;8.35;;;;;;;;;;1638911;87;20921;-79
2022/07/28 00:38:43;;;;;;;14.60;6.97;;;;;;;;;;1639079;87;21059;-79
2022/07/28 00:41:11;;;;;;;15.55;8.65;;;;;;;;;;1639082;87;20854;-80
2022/07/28 00:43:43;;;;;;;14.90;8.13;;;;;;;;;;1639254;87;21154;-80
2022/07/28 00:46:09;;;;;;;19.57;8.33;;;;;;;;;;1639116;87;21049;-79
2022/07/28 00:48:39;;;;;;;19.40;8.48;;;;;;;;;;1639178;87;21080;-79
2022/07/28 00:51:08;;;;;;;21.33;7.65;;;;;;;;;;1639122;87;21555;-79
2022/07/28 00:53:33;;;;;;;16.97;7.95;;;;;;;;;;1638913;87;21119;-79
2022/07/28 00:55:59;;;;;;;17.90;8.58;;;;;;;;;;1638955;87;21269;-79
2022/07/28 00:58:26;;;;;;;16.60;7.72;;;;;;;;;;1639191;87;20996;-79
2022/07/28 01:00:52;;;;;;;17.67;7.95;;;;;;;;;;1639130;87;21016;-80
2022/07/28 01:03:18;;;;;;;17.37;7.85;;;;;;;;;;1639262;87;20920;-79
2022/07/28 01:05:54;;;;;;;14.07;8.10;;;;;;;;;;1639265;87;21024;-79
2022/07/28 01:08:35;;;;;;;17.55;8.03;;;;;;;;;;1634505;87;21272;-80
2022/07/28 01:11:22;;;;;;;20.97;8.95;;;;;;;;;;1634640;87;21120;-80
2022/07/28 01:13:54;;;;;;;15.85;7.90;;;;;;;;;;1634749;87;21111;-80
2022/07/28 01:16:20;;;;;;;17.15;7.50;;;;;;;;;;1637991;87;20997;-80
2022/07/28 01:19:10;;;;;;;17.15;8.60;;;;;;;;;;1638752;86;21008;-81
2022/07/28 01:21:37;;;;;;;17.20;8.38;;;;;;;;;;1638597;87;21191;-80
2022/07/28 01:24:32;;;;;;;17.10;8.05;;;;;;;;;;1639141;87;21103;-80
2022/07/28 01:27:02;;;;;;;17.45;8.73;;;;;;;;;;1638994;87;21200;-80
2022/07/28 01:29:37;;;;;;;21.23;8.83;;;;;;;;;;1639239;87;21068;-80
2022/07/28 01:32:05;;;;;;;16.42;7.95;;;;;;;;;;1634736;87;21044;-80
2022/07/28 01:34:37;;;;;;;19.77;8.33;;;;;;;;;;1639293;86;21488;-81
2022/07/28 01:37:12;;;;;;;17.80;8.60;;;;;;;;;;1639045;87;21539;-81
2022/07/28 01:39:41;;;;;;;20.82;8.18;;;;;;;;;;1638042;87;21084;-80
2022/07/28 01:42:08;;;;;;;15.95;7.55;;;;;;;;;;1638744;86;21004;-80
2022/07/28 01:44:36;;;;;;;14.87;8.25;;;;;;;;;;1639127;87;21524;-81
2022/07/28 01:47:06;;;;;;;19.62;7.85;;;;;;;;;;1639081;87;21118;-81
2022/07/28 01:49:30;;;;;;;18.50;8.50;;;;;;;;;;1634522;87;21414;-80
2022/07/28 01:51:56;;;;;;;16.00;7.53;;;;;;;;;;1639242;86;20893;-81
2022/07/28 01:54:26;;;;;;;14.40;7.83;;;;;;;;;;1639096;87;21583;-80
2022/07/28 01:56:52;;;;;;;15.28;8.10;;;;;;;;;;1637650;87;21099;-81
2022/07/28 01:59:18;;;;;;;16.73;7.25;;;;;;;;;;1639456;87;21094;-81
2022/07/28 02:01:45;;;;;;;20.37;8.50;;;;;;;;;;1639295;87;21108;-81
2022/07/28 02:04:11;;;;;;;16.77;7.72;;;;;;;;;;1639261;87;21075;-81
2022/07/28 02:06:37;;;;;;;14.15;7.75;;;;;;;;;;1639026;87;21099;-81
2022/07/28 02:09:04;;;;;;;16.75;8.65;;;;;;;;;;1639239;87;21044;-81
2022/07/28 02:11:40;;;;;;;17.05;8.43;;;;;;;;;;1639460;87;21880;-80
2022/07/28 02:14:14;;;;;;;18.12;8.18;;;;;;;;;;1639124;87;21040;-81
2022/07/28 02:16:42;;;;;;;13.88;7.90;;;;;;;;;;1603339;89;21098;-80
2022/07/28 02:19:08;;;;;;;20.80;8.63;;;;;;;;;;1605253;88;21094;-81
2022/07/28 02:21:35;;;;;;;20.08;9.00;;;;;;;;;;1607577;88;21814;-80
2022/07/28 02:24:01;;;;;;;17.12;8.60;;;;;;;;;;1607596;87;21165;-81
2022/07/28 02:26:30;;;;;;;18.12;8.75;;;;;;;;;;1607600;87;21050;-81
2022/07/28 02:28:59;;;;;;;21.10;8.08;;;;;;;;;;1563879;90;21128;-80
2022/07/28 02:31:28;;;;;;;18.20;8.18;;;;;;;;;;1563738;90;21450;-81
2022/07/28 02:33:57;;;;;;;16.35;8.78;;;;;;;;;;1538371;91;20976;-81
2022/07/28 02:36:29;;;;;;;16.70;8.78;;;;;;;;;;1538590;91;21134;-81
2022/07/28 02:38:59;;;;;;;14.90;8.00;;;;;;;;;;1511269;93;21168;-81
2022/07/28 02:41:26;;;;;;;18.48;8.83;;;;;;;;;;1511204;93;21942;-81
2022/07/28 02:43:56;;;;;;;15.35;8.53;;;;;;;;;;1511299;93;21656;-81
2022/07/28 02:46:25;;;;;;;17.80;7.80;;;;;;;;;;1511223;93;21023;-81
2022/07/28 02:48:57;;;;;;;19.07;8.48;;;;;;;;;;1511293;93;21213;-81
2022/07/28 02:51:24;;;;;;;20.48;8.75;;;;;;;;;;1439250;99;21042;-81
2022/07/28 02:53:50;;;;;;;16.87;8.23;;;;;;;;;;1439463;99;21687;-82
2022/07/28 02:56:17;;;;;;;17.37;8.53;;;;;;;;;;1439497;99;21194;-81
2022/07/28 02:58:43;;;;;;;18.40;8.95;;;;;;;;;;1439435;99;21159;-81
2022/07/28 03:01:09;;;;;;;19.07;8.50;;;;;;;;;;1439416;99;21164;-82
2022/07/28 03:03:35;;;;;;;23.05;8.90;;;;;;;;;;1439464;99;21758;-82
2022/07/28 03:06:01;;;;;;;16.48;8.83;;;;;;;;;;1439571;99;21057;-82
2022/07/28 03:08:26;;;;;;;21.62;9.73;;;;;;;;;;1439494;99;21172;-82
2022/07/28 03:11:05;;;;;;;17.10;8.88;;;;;;;;;;1439437;99;21018;-82
2022/07/28 03:13:31;;;;;;;22.98;10.05;;;;;;;;;;1383278;103;22023;-82
2022/07/28 03:15:56;;;;;;;22.32;10.00;;;;;;;;;;1386884;103;21235;-82
2022/07/28 03:18:23;;;;;;;20.95;9.75;;;;;;;;;;1367108;102;21041;-82
2022/07/28 03:20:49;;;;;;;19.02;10.25;;;;;;;;;;1358323;105;22284;-82
2022/07/28 03:23:15;;;;;;;23.90;9.60;;;;;;;;;;1378207;104;21032;-82
2022/07/28 03:25:44;;;;;;;18.23;8.98;;;;;;;;;;1366897;104;21234;-82
2022/07/28 03:28:13;;;;;;;18.98;9.08;;;;;;;;;;1419140;101;21240;-83
2022/07/28 03:30:42;;;;;;;20.35;9.15;;;;;;;;;;1436740;98;21598;-83
2022/07/28 03:33:08;;;;;;;19.05;9.18;;;;;;;;;;1459837;98;21109;-83
2022/07/28 03:49:46;;;;;;;16.00;8.65;;;;;;;23.70;100.00;100821.19;1794470;79;22182;-83
2022/07/28 03:52:12;;;;;;;14.73;8.55;;;;;;;24.43;100.00;100817.60;1757391;81;21039;-84
2022/07/28 03:54:38;;;;;;;14.13;8.00;;;;;;;25.48;100.00;100820.72;1757538;81;21065;-84
2022/07/28 03:57:04;;;;;;;16.32;8.18;;;;;;;26.62;100.00;100828.11;1757441;80;21031;-85
2022/07/28 03:59:30;;;;;;;12.33;8.10;;;;;;;27.54;100.00;100829.11;1757865;81;20975;-85
2022/07/28 04:01:56;;;;;;;13.55;7.17;;;;;;;28.34;100.00;100825.59;1757553;81;21035;-85
2022/07/28 04:04:22;;;;;;;14.60;8.28;;;;;;;28.93;100.00;100823.37;1757622;81;21019;-85
2022/07/28 04:06:49;;;;;;;15.35;8.38;;;;;;;29.50;100.00;100818.20;1757399;81;21068;-85
2022/07/28 04:09:15;;;;;;;13.50;8.50;;;;;;;30.18;100.00;100828.45;1757367;81;20872;-85
2022/07/28 04:11:42;;;;;;;11.20;7.90;;;;;;;30.50;100.00;100827.25;1754108;80;21467;-85
2022/07/28 04:14:08;;;;;;;12.13;7.78;;;;;;;30.92;100.00;100827.26;1757504;81;21535;-86
2022/07/28 04:16:34;;;;;;;11.22;7.83;;;;;;;31.14;99.35;100838.62;1757875;81;21063;-86
2022/07/28 04:19:00;;;;;;;13.45;8.18;;;;;;;31.70;98.52;100841.09;1738149;81;21130;-86
2022/07/28 04:21:27;;;;;;;14.65;7.60;;;;;;;32.34;88.52;100841.02;1757592;81;20976;-86
2022/07/28 04:23:53;;;;;;;14.20;7.30;;;;;;;32.79;85.30;100839.87;1757416;81;21015;-87
2022/07/28 04:26:19;;;;;;;12.53;8.08;;;;;;;33.23;79.79;100836.44;1757264;80;21496;-86
2022/07/28 04:28:45;;;;;;;15.65;8.88;;;;;;;33.91;76.35;100851.89;1757500;81;21015;-87
2022/07/28 04:31:11;;;;;;;18.60;9.55;;;;;;;34.38;70.42;100840.42;1757549;81;21857;-87
2022/07/28 04:33:38;;;;;;;17.62;9.98;;;;;;;34.71;69.28;100844.25;1694927;81;20956;-87
2022/07/28 04:36:04;;;;;;;13.70;8.95;;;;;;;35.29;63.66;100849.88;1757248;81;21051;-87
2022/07/28 04:38:30;;;;;;;13.60;8.48;;;;;;;35.69;61.83;100854.45;1757411;81;20985;-88
2022/07/28 04:40:56;;;;;;;12.68;8.08;;;;;;;36.00;58.83;100855.69;1757400;81;20984;-88
2022/07/28 04:43:22;;;;;;;13.58;8.28;;;;;;;36.43;57.37;100851.31;1757623;81;21089;-88
2022/07/28 04:45:50;;;;;;;12.37;7.10;;;;;;;36.97;53.20;100849.56;1757249;80;21508;-89
2022/07/28 04:48:16;;;;;;;9.65;7.08;;;;;;;37.15;53.93;100846.37;1753496;81;21040;-90
2022/07/28 04:50:44;;;;;;;13.78;6.97;;;;;;;37.66;50.64;100848.18;1744226;82;21051;-90
2022/07/28 04:53:11;;;;;;;12.10;6.97;;;;;;;38.09;48.52;100841.42;1733936;82;21472;-89
2022/07/28 04:55:38;;;;;;;9.68;6.62;;;;;;;38.37;47.29;100850.48;1744284;82;21122;-90
2022/07/28 04:58:07;;;;;;;7.53;6.10;;;;;;;38.57;45.57;100842.52;1742721;82;21028;-90
2022/07/28 05:00:33;;;;;;;10.03;5.90;;;;;;;38.89;44.01;100848.61;1743901;82;21232;-90
2022/07/28 05:03:01;;;;;;;9.68;5.58;;;;;;;39.14;44.28;100856.27;1733088;82;21000;-90
2022/07/28 05:05:28;;;;;;;6.70;5.45;;;;;;;39.31;43.12;100851.95;1743636;82;21012;-90
2022/07/28 05:07:54;;;;;;;6.53;5.80;;;;;;;39.57;41.12;100851.30;1743784;81;21109;-90
2022/07/28 05:10:20;;;;;;;7.90;5.75;;;;;;;39.44;39.84;100853.50;1743955;81;21567;-89
2022/07/28 05:12:48;;;;;;;8.25;5.87;;;;;;;39.13;40.05;100851.09;1744185;82;20992;-91
2022/07/28 05:15:14;;;;;;;8.58;5.70;;;;;;;39.20;39.56;100856.50;1743656;82;20989;-91
2022/07/28 05:17:40;;;;;;;5.97;5.37;;;;;;;39.40;39.49;100857.07;1743913;82;21035;-90
2022/07/28 05:20:07;;;;;;;5.85;5.25;;;;;;;39.92;39.43;100853.53;1743954;81;21156;-89
2022/07/28 05:22:49;;;;;;;6.20;5.37;;;;;;;40.56;38.51;100860.28;1743279;82;21055;-90
2022/07/28 05:25:18;;;;;;;6.67;5.83;;;;;;;40.60;37.53;100856.09;1743577;81;20977;-90
2022/07/28 05:27:45;;;;;;;11.65;6.33;;;;;;;40.63;36.98;100856.61;1743857;81;21024;-89
2022/07/28 05:30:13;;;;;;;8.28;5.70;;;;;;;40.89;36.67;100856.42;1743772;82;20981;-89
2022/07/28 05:32:42;;;;;;;11.12;6.17;;;;;;;40.96;35.86;100856.77;1743826;81;21156;-90
2022/07/28 05:35:12;;;;;;;6.47;5.67;;;;;;;41.20;35.88;100852.79;1743171;81;21079;-89
2022/07/28 05:37:38;;;;;;;8.05;6.00;;;;;;;41.34;34.78;100853.63;1743999;81;21071;-89
2022/07/28 05:40:12;;;;;;;7.37;5.70;;;;;;;41.47;34.96;100857.13;1744001;81;21516;-90
2022/07/28 05:42:40;;;;;;;6.67;5.85;;;;;;;41.78;33.93;100854.83;1743939;82;21508;-90
2022/07/28 05:45:11;;;;;;;7.55;5.72;;;;;;;41.79;34.11;100859.85;1743826;81;21069;-90
2022/07/28 05:47:48;;;;;;;8.75;5.70;;;;;;;42.25;33.32;100862.08;1743057;81;20996;-90
2022/07/28 05:50:16;;;;;;;13.50;8.25;;;;;;;42.56;32.49;100859.67;1661715;84;21476;-89
2022/07/28 05:52:43;;;;;;;14.50;9.20;;;;;;;42.94;31.96;100862.57;1662218;85;21042;-89
2022/07/28 05:55:10;;;;;;;11.53;8.20;;;;;;;42.91;31.63;100866.36;1662411;85;21067;-89
2022/07/28 05:57:37;;;;;;;12.05;7.87;;;;;;;42.62;31.50;100857.16;1661945;85;21130;-89
2022/07/28 06:00:11;;;;;;;10.00;6.65;;;;;;;42.60;32.03;100863.14;1662168;85;21035;-89
2022/07/28 06:02:37;;;;;;;14.58;6.53;;;;;;;42.94;31.54;100870.44;1662394;85;21421;-90
2022/07/28 06:05:07;;;;;;;8.00;6.10;;;;;;;43.35;30.06;100870.90;1662606;85;21063;-90
2022/07/28 06:07:34;;;;;;;8.48;6.25;;;;;;;43.32;29.76;100865.55;1662484;85;21007;-89
2022/07/28 06:10:00;;;;;;;7.92;6.03;;;;;;;43.50;30.31;100867.48;1662358;85;21095;-89
2022/07/28 06:12:26;;;;;;;6.15;5.55;;;;;;;43.87;29.96;100870.74;1662285;85;20991;-89
2022/07/28 06:14:52;;;;;;;6.50;5.90;;;;;;;44.29;29.63;100869.11;1662124;85;21157;-89
2022/07/28 06:17:18;;;;;;;9.35;5.33;;;;;;;44.50;29.91;100871.45;1662364;85;21075;-89
2022/07/28 06:19:44;;;;;;;6.17;5.62;;;;;;;44.46;29.15;100875.14;1662345;85;21821;-89
2022/07/28 06:22:11;;;;;;;5.67;5.17;;;;;;;44.36;29.05;100882.17;1662459;85;21095;-89
2022/07/28 06:24:37;;;;;;;6.12;5.55;;;;;;;44.68;29.03;100878.21;1662074;85;21103;-89
2022/07/28 06:27:03;;;;;;;5.65;5.20;;;;;;;44.84;28.03;100879.94;1662036;85;21043;-89
2022/07/28 06:29:30;;;;;;;6.70;5.03;;;;;;;45.21;27.82;100882.33;1663149;85;21094;-89
2022/07/28 06:31:56;;;;;;;6.33;5.72;;;;;;;45.23;27.76;100882.62;1662372;85;21121;-89
2022/07/28 06:34:22;;;;;;;6.95;5.10;;;;;;;44.98;26.57;100881.20;1662735;85;21549;-89
2022/07/28 06:36:48;;;;;;;6.05;5.55;;;;;;;45.01;27.20;100882.28;1640070;86;21748;-88
2022/07/28 06:39:14;;;;;;;7.28;5.75;;;;;;;45.13;26.49;100881.20;1662138;86;21123;-90
2022/07/28 06:41:43;;;;;;;6.53;5.95;;;;;;;45.39;26.14;100876.23;1662571;85;21575;-89
2022/07/28 06:44:09;;;;;;;6.40;5.80;;;;;;;45.32;25.96;100878.22;1662205;85;21058;-88
2022/07/28 06:46:35;;;;;;;6.53;5.75;;;;;;;45.17;26.26;100878.92;1689629;82;21495;-87
2022/07/28 06:49:03;;;;;;;6.15;5.45;;;;;;;45.54;26.13;100872.73;1743616;82;20985;-89
2022/07/28 06:51:30;;;;;;;6.75;6.25;;;;;;;45.90;26.14;100877.08;1743908;81;21555;-88
2022/07/28 06:53:57;;;;;;;6.62;6.00;;;;;;;46.44;25.43;100872.34;1743771;81;21376;-87
2022/07/28 06:56:24;;;;;;;6.08;5.58;;;;;;;46.36;25.39;100876.30;1743615;81;21039;-87
2022/07/28 06:58:50;;;;;;;7.50;6.12;;;;;;;46.46;24.62;100880.41;1743847;81;22158;-88
2022/07/28 07:01:16;;;;;;;6.90;6.40;;;;;;;46.69;24.53;100878.56;1743672;81;21023;-88
2022/07/28 07:03:43;;;;;;;7.00;6.33;;;;;;;46.98;24.16;100875.41;1743713;82;21075;-88
2022/07/28 07:06:09;;;;;;;6.97;6.28;;;;;;;47.11;24.21;100880.69;1743811;82;21052;-88
2022/07/28 07:08:36;;;;;;;8.03;7.00;;;;;;;47.08;24.92;100884.56;1743741;82;20976;-88
2022/07/28 07:11:02;;;;;;;10.15;6.62;;;;;;;47.48;23.51;100874.97;1743795;82;21094;-88
2022/07/28 07:13:28;;;;;;;7.92;7.22;;;;;;;47.43;23.65;100880.64;1743623;82;20993;-89
2022/07/28 07:15:54;;;;;;;7.78;7.15;;;;;;;47.40;23.46;100875.96;1743491;81;21071;-88
2022/07/28 07:18:20;;;;;;;7.75;6.70;;;;;;;47.40;23.42;100873.88;1743849;82;21606;-88
2022/07/28 07:20:47;;;;;;;7.53;6.80;;;;;;;47.24;22.50;100874.53;1743829;82;20949;-90
2022/07/28 07:23:13;;;;;;;7.20;6.60;;;;;;;46.61;23.67;100873.91;1743386;81;22178;-87
2022/07/28 07:25:40;;;;;;;7.00;6.33;;;;;;;46.68;23.44;100878.41;1743743;81;20924;-88
2022/07/28 07:28:06;;;;;;;7.65;6.45;;;;;;;45.95;23.44;100874.95;1743528;82;21513;-88
2022/07/28 07:30:32;;;;;;;6.78;6.17;;;;;;;45.88;24.03;100884.53;1743994;82;21528;-88
2022/07/28 07:32:58;;;;;;;6.65;6.15;;;;;;;46.05;23.91;100888.39;1743963;82;20989;-89
2022/07/28 07:35:24;;;;;;;7.72;6.17;;;;;;;46.14;23.97;100886.80;1743748;81;21672;-90
2022/07/28 07:37:50;;;;;;;6.80;6.10;;;;;;;46.49;24.45;100887.95;1743594;81;20973;-89
2022/07/28 07:40:16;;;;;;;8.95;6.47;;;;;;;46.80;23.80;100887.98;1743701;82;21031;-88
2022/07/28 07:42:42;;;;;;;7.22;6.53;;;;;;;46.68;23.41;100887.73;1743965;82;21060;-88
2022/07/28 07:45:09;;;;;;;6.60;5.80;;;;;;;47.08;23.40;100886.77;1743862;82;21004;-87
2022/07/28 07:47:35;;;;;;;10.35;6.15;;;;;;;46.46;23.06;100892.59;1743776;81;21491;-88
2022/07/28 07:50:01;;;;;;;12.90;6.17;;;;;;;45.87;24.20;100898.00;1751530;81;20904;-88
2022/07/28 07:52:26;;;;;;;9.00;5.17;;;;;;;46.02;24.13;100902.86;1756871;81;20880;-87
2022/07/28 07:54:53;;;;;;;6.15;5.65;;;;;;;46.29;22.97;100895.27;1757167;81;20963;-89
2022/07/28 07:57:19;;;;;;;6.78;6.17;;;;;;;46.73;23.71;100898.42;1757141;81;21045;-88
2022/07/28 07:59:45;;;;;;;6.58;5.87;;;;;;;47.25;22.96;100901.16;1757396;81;21072;-89
2022/07/28 08:02:11;;;;;;;6.03;5.53;;;;;;;47.30;22.39;100894.70;1756713;81;21027;-88
2022/07/28 08:04:37;;;;;;;6.90;5.35;;;;;;;47.41;22.02;100896.85;1757088;81;20864;-89
2022/07/28 08:07:03;;;;;;;6.22;5.65;;;;;;;47.34;22.21;100898.09;1756847;81;21011;-90
2022/07/28 08:09:29;;;;;;;5.80;5.40;;;;;;;47.16;22.12;100897.08;1756668;81;21016;-87
2022/07/28 08:11:55;;;;;;;8.35;5.25;;;;;;;46.92;21.77;100899.46;1757095;81;21253;-86
2022/07/28 08:17:34;;;;;;;;;;;;;;;;;;;;;
2022/07/28 08:20:05;;;;;;;;;;;;;;;;;;;;;
2022/07/28 08:22:20;;;;;;;6.00;5.40;;;;;;;45.38;23.48;100905.35;1571500;90;21111;-87
2022/07/28 08:24:46;;;;;;;7.20;5.37;;;;;;;45.84;23.82;100906.77;1577714;91;21341;-86
2022/07/28 08:27:12;;;;;;;7.03;4.90;;;;;;;46.46;23.12;100915.40;1577921;91;20988;-89
2022/07/28 08:29:38;;;;;;;5.85;4.25;;;;;;;45.92;22.74;100915.84;1577841;91;21628;-86
2022/07/28 08:32:05;;;;;;;13.32;4.80;;;;;;;45.24;23.40;100911.25;1577753;91;21056;-87
2022/07/28 08:34:32;;;;;;;6.70;3.98;;;;;;;45.51;23.44;100915.02;1577742;91;21090;-86
2022/07/28 08:36:59;;;;;;;4.55;4.15;;;;;;;44.81;23.45;100908.59;1577767;91;21585;-85
2022/07/28 08:39:25;;;;;;;4.78;4.28;;;;;;;44.40;24.31;100909.79;1577822;91;21119;-87
2022/07/28 08:42:25;;;;;;;4.67;4.22;;;;;;;44.30;24.03;100903.39;1578115;91;21000;-88
2022/07/28 08:44:58;;;;;;;4.05;3.75;;;;;;;44.47;23.76;100901.50;1577821;91;21150;-86
2022/07/28 08:47:26;;;;;;;4.80;3.83;;;;;;;44.46;23.65;100902.14;1575647;91;21144;-87
2022/07/28 08:49:53;;;;;;;4.55;4.05;;;;;;;44.62;23.14;100901.64;1576550;90;21342;-86
2022/07/28 08:52:22;;;;;;;4.42;4.03;;;;;;;44.84;22.73;100896.23;1575065;90;21031;-86
2022/07/28 08:54:50;;;;;;;3.98;3.67;;;;;;;45.06;22.94;100895.14;1574794;90;21570;-87
2022/07/28 08:57:22;;;;;;;4.35;3.95;;;;;;;45.35;22.30;100897.02;1612202;87;21140;-86
2022/07/28 08:59:49;;;;;;;7.17;3.92;;;;;;;45.60;22.45;100897.80;1621466;87;21216;-85
2022/07/28 09:02:16;;;;;;;6.20;3.87;;;;;;;45.09;22.26;100897.00;1636981;86;21332;-85
2022/07/28 09:04:44;;;;;;;5.47;3.95;;;;;;;44.40;22.08;100904.11;1637170;86;21023;-86
2022/07/28 09:07:11;;;;;;;5.40;3.45;;;;;;;43.57;23.60;100906.14;1637213;85;20967;-85
2022/07/28 09:09:38;;;;;;;4.40;4.00;;;;;;;44.01;23.61;100899.86;1636923;87;21043;-86
2022/07/28 09:12:05;;;;;;;4.28;3.87;;;;;;;44.46;23.65;100902.14;1637596;87;21038;-85
2022/07/28 09:14:33;;;;;;;4.40;4.03;;;;;;;44.82;23.00;100898.78;1637127;86;21122;-86
2022/07/28 09:17:00;;;;;;;4.37;3.98;;;;;;;44.70;22.97;100896.36;1637306;86;21038;-87
2022/07/28 09:19:28;;;;;;;4.72;4.33;;;;;;;44.41;23.46;100902.82;1637129;87;21496;-87
2022/07/28 09:21:55;;;;;;;6.15;4.33;;;;;;;44.65;23.68;100891.34;1637307;86;21121;-85
2022/07/28 09:24:41;;;;;;;4.67;4.28;;;;;;;44.83;22.90;100891.19;1636993;87;21145;-85
2022/07/28 09:27:10;;;;;;;5.28;4.10;;;;;;;44.91;22.85;100897.24;1582375;90;21307;-85
2022/07/28 09:29:40;;;;;;;5.67;4.37;;;;;;;44.89;22.74;100894.13;1582340;90;21128;-83
2022/07/28 09:32:07;;;;;;;4.45;4.00;;;;;;;44.48;22.33;100903.06;1582565;90;21611;-85
2022/07/28 09:34:46;;;;;;;6.10;4.28;;;;;;;43.72;23.17;100899.88;1582177;90;21104;-85
2022/07/28 09:37:21;;;;;;;4.42;3.95;;;;;;;43.05;23.86;100903.33;1622627;85;21511;-85
2022/07/28 09:39:49;;;;;;;6.65;3.77;;;;;;;42.78;24.86;100905.64;1675597;85;21180;-84
2022/07/28 09:42:18;;;;;;;4.87;4.05;;;;;;;42.94;25.03;100905.89;1675678;85;21102;-84
2022/07/28 09:44:49;;;;;;;5.17;3.90;;;;;;;42.38;25.08;100906.62;1675371;85;21054;-84
2022/07/28 09:47:27;;;;;;;5.35;3.90;;;;;;;41.60;26.00;100910.78;1672400;84;21089;-82
2022/07/28 09:49:53;;;;;;;4.50;4.00;;;;;;;41.28;26.11;100910.03;1676429;84;21186;-87
2022/07/28 09:52:37;;;;;;;8.15;4.33;;;;;;;41.25;27.08;100881.89;1675390;84;21164;-85
2022/07/28 09:55:09;;;;;;;5.05;4.08;;;;;;;41.11;26.54;100914.98;1675474;85;21089;-85
2022/07/28 09:57:40;;;;;;;5.25;4.03;;;;;;;40.16;27.38;100911.78;1675430;84;20987;-83
2022/07/28 10:00:11;;;;;;;4.58;4.08;;;;;;;39.50;28.08;100910.14;1653186;86;21079;-84
2022/07/28 10:02:38;;;;;;;5.33;4.20;;;;;;;39.54;28.78;100906.59;1653342;86;21599;-83
2022/07/28 10:05:06;;;;;;;8.30;4.60;;;;;;;39.72;28.92;100908.20;1678725;84;21082;-84
2022/07/28 10:07:33;;;;;;;5.72;4.47;;;;;;;39.88;28.96;100897.39;1684831;84;22223;-84
2022/07/28 10:10:10;;;;;;;8.95;4.72;;;;;;;40.04;28.93;100902.73;1684465;85;21031;-83
2022/07/28 10:12:37;;;;;;;7.33;4.72;;;;;;;39.68;29.17;100911.77;1684597;84;21011;-84
2022/07/28 10:18:06;;;;;;;7.10;4.65;;;;;;;38.90;30.02;100913.59;1684725;84;21160;-83
2022/07/28 10:20:33;;;;;;;9.38;4.22;;;;;;;38.78;30.70;100905.27;1684662;85;21099;-88
2022/07/28 10:23:04;;;;;;;5.67;4.37;;;;;;;38.71;30.80;100906.08;1685057;85;21027;-84
2022/07/28 10:25:33;;;;;;;8.78;4.42;;;;;;;38.73;30.62;100899.39;1684779;85;21104;-83
2022/07/28 10:28:01;;;;;;;6.78;4.22;;;;;;;38.97;30.01;100892.86;1684903;85;21051;-83
2022/07/28 10:30:30;;;;;;;8.45;4.33;;;;;;;39.26;29.52;100887.90;1684754;85;21116;-84
2022/07/28 10:32:58;;;;;;;6.92;4.22;;;;;;;39.01;30.08;100892.93;1684625;83;21496;-83
2022/07/28 10:35:26;;;;;;;5.47;4.28;;;;;;;38.85;31.00;100896.61;1685085;85;21087;-83
2022/07/28 10:38:10;;;;;;;5.30;4.45;;;;;;;38.97;30.84;100891.45;1684815;85;21028;-83
2022/07/28 10:40:43;;;;;;;10.20;4.15;;;;;;;39.14;30.63;100893.55;1682351;85;21122;-83
2022/07/28 10:43:11;;;;;;;5.03;3.87;;;;;;;39.27;30.92;100897.95;1684936;85;21091;-84
2022/07/28 10:45:38;;;;;;;7.50;4.10;;;;;;;38.97;30.93;100901.31;1684747;85;21083;-84
2022/07/28 10:48:06;;;;;;;6.25;3.80;;;;;;;38.99;30.17;100904.48;1684825;85;21082;-84
2022/07/28 10:50:34;;;;;;;7.05;4.10;;;;;;;38.89;30.15;100895.12;1684682;85;21059;-82
2022/07/28 10:53:02;;;;;;;4.55;3.95;;;;;;;38.79;29.85;100893.37;1696155;84;21022;-82
2022/07/28 10:55:56;;;;;;;7.30;4.60;;;;;;;38.05;29.93;100890.78;1697123;84;21163;-82
2022/07/28 10:58:46;;;;;;;7.28;4.22;;;;;;;37.55;30.54;100892.66;1754869;81;21035;-84
2022/07/28 11:01:35;;;;;;;6.42;4.58;;;;;;;37.23;31.39;100900.59;1754382;81;21010;-85
2022/07/28 11:04:01;;;;;;;5.78;4.33;;;;;;;36.96;33.05;100899.36;1756764;81;20964;-82
2022/07/28 11:06:35;;;;;;;10.40;5.20;;;;;;;37.14;32.97;100897.59;1756987;81;21090;-82
2022/07/28 11:09:21;;;;;;;8.85;4.85;;;;;;;37.01;33.46;100898.88;1756764;81;21065;-82
2022/07/28 11:11:53;;;;;;;6.33;4.28;;;;;;;36.74;33.84;100900.44;1756812;81;20981;-83
2022/07/28 11:14:32;;;;;;;6.95;4.37;;;;;;;36.42;33.87;100902.47;1756844;81;21000;-82
2022/07/28 11:17:12;;;;;;;5.97;4.55;;;;;;;36.17;33.87;100902.92;1706409;84;21071;-82
2022/07/28 11:19:52;;;;;;;6.12;4.08;;;;;;;36.07;33.97;100906.12;1706232;83;21064;-81
2022/07/28 11:22:23;;;;;;;6.83;4.40;;;;;;;35.98;34.46;100906.47;1706440;84;22107;-82
2022/07/28 11:25:04;;;;;;;5.73;3.77;;;;;;;36.00;34.86;100901.98;1706789;84;21504;-81
2022/07/28 11:27:45;;;;;;;9.80;4.67;;;;;;;36.03;34.73;100901.75;1706417;84;21079;-82
2022/07/28 11:30:35;;;;;;;5.10;4.00;;;;;;;35.96;34.72;100900.48;1706490;84;21025;-81
2022/07/28 11:33:04;;;;;;;7.08;4.30;;;;;;;35.93;35.17;100897.92;1706384;84;21013;-84
2022/07/28 11:35:47;;;;;;;6.03;4.72;;;;;;;35.91;35.53;100901.14;1706473;84;21156;-81
2022/07/28 11:38:13;;;;;;;5.92;4.37;;;;;;;36.00;35.37;100896.38;1706522;83;21057;-82
2022/07/28 11:40:55;;;;;;;6.12;4.67;;;;;;;36.41;35.67;100895.25;1706909;84;21524;-81
2022/07/28 11:43:25;;;;;;;6.75;4.50;;;;;;;36.86;35.40;100889.16;1706445;83;21036;-82
2022/07/28 11:46:09;;;;;;;6.67;4.00;;;;;;;37.41;34.51;100884.70;1706515;84;21567;-82
2022/07/28 11:48:38;;;;;;;6.62;4.47;;;;;;;37.78;33.07;100884.03;1706857;83;21092;-81
2022/07/28 11:51:10;;;;;;;8.50;4.28;;;;;;;37.66;33.14;100882.72;1678237;84;21076;-84
2022/07/28 11:53:45;;;;;;;5.55;4.40;;;;;;;37.76;33.37;100886.48;1604847;88;21074;-83
2022/07/28 11:56:26;;;;;;;5.10;4.20;;;;;;;37.33;33.33;100882.49;1604649;89;21534;-82
2022/07/28 11:59:09;;;;;;;5.53;3.98;;;;;;;37.07;33.63;100882.92;1539405;93;21147;-82
2022/07/28 12:01:35;;;;;;;5.40;4.10;;;;;;;36.89;34.17;100888.29;1526549;93;21070;-82
2022/07/28 12:04:17;;;;;;;7.37;4.12;;;;;;;36.68;34.64;100888.14;1529095;93;21154;-82
2022/07/28 12:06:45;;;;;;;10.48;5.05;;;;;;;36.49;34.71;100893.89;1509278;93;21048;-83
2022/07/28 12:09:12;;;;;;;8.08;4.35;;;;;;;36.55;35.04;100889.38;1528998;93;21134;-82
2022/07/28 12:11:52;;;;;;;6.67;4.42;;;;;;;36.35;35.37;100887.94;1529190;93;21047;-82
2022/07/28 12:14:14;;;;;;;11.00;4.42;;;;;;;36.28;36.07;100884.49;1546035;92;21110;-82
2022/07/28 12:16:50;;;;;;;4.87;3.90;;;;;;;36.39;35.98;100883.67;1553872;92;21045;-81
2022/07/28 12:19:19;;;;;;;5.58;4.50;;;;;;;36.57;35.38;100878.52;1553876;92;21030;-82
2022/07/28 12:21:52;;;;;;;6.97;4.17;;;;;;;36.78;34.62;100869.46;1537019;93;21041;-82
2022/07/28 12:24:34;;;;;;;5.30;3.87;;;;;;;36.93;34.89;100867.92;1537041;93;21089;-83
2022/07/28 12:27:02;;;;;;;7.05;3.72;;;;;;;37.15;34.34;100865.45;1536952;93;21647;-82
2022/07/28 12:29:31;;;;;;;4.55;3.67;;;;;;;37.28;33.94;100856.50;1536667;93;21058;-82
2022/07/28 12:32:03;;;;;;;4.28;3.42;;;;;;;37.38;32.87;100856.05;1536770;93;21635;-82
2022/07/28 12:34:36;;;;;;;7.42;3.55;;;;;;;37.41;31.97;100857.98;1537335;92;21014;-84
2022/07/28 12:37:05;;;;;;;11.28;4.08;;;;;;;37.34;32.38;100859.58;1536871;93;21646;-84
2022/07/28 12:39:37;;;;;;;3.95;3.50;;;;;;;37.39;32.22;100859.06;1536909;93;21601;-83
2022/07/28 12:42:08;;;;;;;4.33;3.65;;;;;;;37.25;32.50;100863.62;1492291;96;21117;-84